sensor_id;sensor_type;location;lat;lon;timestamp;temperature;humidity
37408;DHT22;24866;50.248;8.252;2023-12-29T00:03:39;8.50;99.90
37408;DHT22;24866;50.248;8.252;2023-12-29T00:06:09;8.40;99.90
37408;DHT22;24866;50.248;8.252;2023-12-29T00:08:39;8.40;99.90
37408;DHT22;24866;50.248;8.252;2023-12-29T00:11:16;8.60;99.90
37408;DHT22;24866;50.248;8.252;2023-12-29T00:13:47;8.50;99.90
37408;DHT22;24866;50.248;8.252;2023-12-29T00:21:19;8.40;99.90
37408;DHT22;24866;50.248;8.252;2023-12-29T00:23:49;8.40;99.90
37408;DHT22;24866;50.248;8.252;2023-12-29T00:26:19;8.40;99.90
37408;DHT22;24866;50.248;8.252;2023-12-29T00:31:21;8.30;99.90
37408;DHT22;24866;50.248;8.252;2023-12-29T00:36:21;8.20;99.90
37408;DHT22;24866;50.248;8.252;2023-12-29T00:43:51;8.40;99.90
37408;DHT22;24866;50.248;8.252;2023-12-29T00:46:23;8.50;99.90
37408;DHT22;24866;50.248;8.252;2023-12-29T00:53:53;8.00;99.90
37408;DHT22;24866;50.248;8.252;2023-12-29T01:01:24;8.60;99.90
37408;DHT22;24866;50.248;8.252;2023-12-29T01:03:54;8.50;99.90
37408;DHT22;24866;50.248;8.252;2023-12-29T01:06:24;8.40;99.90
37408;DHT22;24866;50.248;8.252;2023-12-29T01:08:54;8.50;99.90
37408;DHT22;24866;50.248;8.252;2023-12-29T01:11:24;8.60;99.90
37408;DHT22;24866;50.248;8.252;2023-12-29T01:13:54;8.50;99.90
37408;DHT22;24866;50.248;8.252;2023-12-29T01:16:25;8.50;99.90
37408;DHT22;24866;50.248;8.252;2023-12-29T01:18:55;8.60;99.90
37408;DHT22;24866;50.248;8.252;2023-12-29T01:21:25;8.50;99.90
37408;DHT22;24866;50.248;8.252;2023-12-29T01:23:55;8.50;99.90
37408;DHT22;24866;50.248;8.252;2023-12-29T01:26:25;8.60;99.90
37408;DHT22;24866;50.248;8.252;2023-12-29T01:28:55;8.70;99.90
37408;DHT22;24866;50.248;8.252;2023-12-29T01:31:29;8.60;99.90
37408;DHT22;24866;50.248;8.252;2023-12-29T01:34:00;8.60;99.90
37408;DHT22;24866;50.248;8.252;2023-12-29T01:36:30;8.50;99.90
37408;DHT22;24866;50.248;8.252;2023-12-29T01:39:00;8.60;99.90
37408;DHT22;24866;50.248;8.252;2023-12-29T01:41:31;8.60;99.90
37408;DHT22;24866;50.248;8.252;2023-12-29T01:44:20;8.60;99.90
37408;DHT22;24866;50.248;8.252;2023-12-29T01:46:54;8.70;99.90
37408;DHT22;24866;50.248;8.252;2023-12-29T01:49:25;8.70;99.90
37408;DHT22;24866;50.248;8.252;2023-12-29T01:51:56;8.70;99.90
37408;DHT22;24866;50.248;8.252;2023-12-29T01:54:29;8.60;99.90
37408;DHT22;24866;50.248;8.252;2023-12-29T01:59:31;8.70;99.90
37408;DHT22;24866;50.248;8.252;2023-12-29T02:04:33;8.70;99.90
37408;DHT22;24866;50.248;8.252;2023-12-29T02:07:05;8.80;99.90
37408;DHT22;24866;50.248;8.252;2023-12-29T02:14:35;8.70;99.90
37408;DHT22;24866;50.248;8.252;2023-12-29T02:17:16;8.80;99.90
37408;DHT22;24866;50.248;8.252;2023-12-29T02:19:50;8.70;99.90
37408;DHT22;24866;50.248;8.252;2023-12-29T02:22:21;8.80;99.90
37408;DHT22;24866;50.248;8.252;2023-12-29T02:24:52;8.70;99.90
37408;DHT22;24866;50.248;8.252;2023-12-29T02:27:30;8.60;99.90
37408;DHT22;24866;50.248;8.252;2023-12-29T02:30:08;8.70;99.90
37408;DHT22;24866;50.248;8.252;2023-12-29T02:32:39;8.60;99.90
37408;DHT22;24866;50.248;8.252;2023-12-29T02:35:12;8.70;99.90
37408;DHT22;24866;50.248;8.252;2023-12-29T02:37:42;8.80;99.90
37408;DHT22;24866;50.248;8.252;2023-12-29T02:40:14;8.80;99.90
37408;DHT22;24866;50.248;8.252;2023-12-29T02:42:46;8.80;99.90
37408;DHT22;24866;50.248;8.252;2023-12-29T02:45:16;8.80;99.90
37408;DHT22;24866;50.248;8.252;2023-12-29T02:47:47;8.80;99.90
37408;DHT22;24866;50.248;8.252;2023-12-29T02:50:18;8.80;99.90
37408;DHT22;24866;50.248;8.252;2023-12-29T02:52:47;8.80;99.90
37408;DHT22;24866;50.248;8.252;2023-12-29T02:55:22;8.90;99.90
37408;DHT22;24866;50.248;8.252;2023-12-29T02:57:52;8.80;99.90
37408;DHT22;24866;50.248;8.252;2023-12-29T03:00:21;8.80;99.90
37408;DHT22;24866;50.248;8.252;2023-12-29T03:02:51;8.90;99.90
37408;DHT22;24866;50.248;8.252;2023-12-29T03:05:21;8.80;99.90
37408;DHT22;24866;50.248;8.252;2023-12-29T03:07:51;8.80;99.90
37408;DHT22;24866;50.248;8.252;2023-12-29T03:10:22;8.90;99.90
37408;DHT22;24866;50.248;8.252;2023-12-29T03:12:52;8.90;99.90
37408;DHT22;24866;50.248;8.252;2023-12-29T03:15:22;8.80;99.90
37408;DHT22;24866;50.248;8.252;2023-12-29T03:17:52;8.70;99.90
37408;DHT22;24866;50.248;8.252;2023-12-29T03:20:22;8.60;99.90
37408;DHT22;24866;50.248;8.252;2023-12-29T03:22:52;8.40;99.90
37408;DHT22;24866;50.248;8.252;2023-12-29T03:25:23;8.30;99.90
37408;DHT22;24866;50.248;8.252;2023-12-29T03:27:53;8.20;99.90
37408;DHT22;24866;50.248;8.252;2023-12-29T03:30:22;8.20;99.90
37408;DHT22;24866;50.248;8.252;2023-12-29T03:32:52;8.20;99.90
37408;DHT22;24866;50.248;8.252;2023-12-29T03:35:22;8.20;99.90
37408;DHT22;24866;50.248;8.252;2023-12-29T03:37:52;8.20;99.90
37408;DHT22;24866;50.248;8.252;2023-12-29T03:40:23;8.30;99.90
37408;DHT22;24866;50.248;8.252;2023-12-29T03:42:53;8.30;99.90
37408;DHT22;24866;50.248;8.252;2023-12-29T03:45:23;8.30;99.90
37408;DHT22;24866;50.248;8.252;2023-12-29T03:47:53;8.30;99.90
37408;DHT22;24866;50.248;8.252;2023-12-29T03:50:22;8.30;99.90
37408;DHT22;24866;50.248;8.252;2023-12-29T03:52:52;8.30;99.90
37408;DHT22;24866;50.248;8.252;2023-12-29T03:55:24;8.40;99.90
37408;DHT22;24866;50.248;8.252;2023-12-29T03:57:53;8.40;99.90
37408;DHT22;24866;50.248;8.252;2023-12-29T04:00:24;8.40;99.90
37408;DHT22;24866;50.248;8.252;2023-12-29T04:02:54;8.50;99.90
37408;DHT22;24866;50.248;8.252;2023-12-29T04:05:24;8.40;99.90
37408;DHT22;24866;50.248;8.252;2023-12-29T04:07:54;8.30;99.90
37408;DHT22;24866;50.248;8.252;2023-12-29T04:10:25;8.40;99.90
37408;DHT22;24866;50.248;8.252;2023-12-29T04:12:55;8.40;99.90
37408;DHT22;24866;50.248;8.252;2023-12-29T04:15:24;8.50;99.90
37408;DHT22;24866;50.248;8.252;2023-12-29T04:17:54;8.50;99.90
37408;DHT22;24866;50.248;8.252;2023-12-29T04:20:24;8.50;99.90
37408;DHT22;24866;50.248;8.252;2023-12-29T04:22:54;8.60;99.90
37408;DHT22;24866;50.248;8.252;2023-12-29T04:25:26;8.60;99.90
37408;DHT22;24866;50.248;8.252;2023-12-29T04:27:56;8.60;99.90
37408;DHT22;24866;50.248;8.252;2023-12-29T04:30:26;8.50;99.90
37408;DHT22;24866;50.248;8.252;2023-12-29T04:32:56;8.60;99.90
37408;DHT22;24866;50.248;8.252;2023-12-29T04:35:25;8.60;99.90
37408;DHT22;24866;50.248;8.252;2023-12-29T04:37:55;8.60;99.90
37408;DHT22;24866;50.248;8.252;2023-12-29T04:40:27;8.70;99.90
37408;DHT22;24866;50.248;8.252;2023-12-29T04:42:57;8.70;99.90
37408;DHT22;24866;50.248;8.252;2023-12-29T04:45:27;8.60;99.90
37408;DHT22;24866;50.248;8.252;2023-12-29T04:47:57;8.70;99.90
37408;DHT22;24866;50.248;8.252;2023-12-29T04:50:27;8.60;99.90
37408;DHT22;24866;50.248;8.252;2023-12-29T04:52:57;8.60;99.90
37408;DHT22;24866;50.248;8.252;2023-12-29T04:55:28;8.60;99.90
37408;DHT22;24866;50.248;8.252;2023-12-29T04:57:58;8.60;99.90
37408;DHT22;24866;50.248;8.252;2023-12-29T05:00:28;8.60;99.90
37408;DHT22;24866;50.248;8.252;2023-12-29T05:02:58;8.50;99.90
37408;DHT22;24866;50.248;8.252;2023-12-29T05:05:27;8.50;99.90
37408;DHT22;24866;50.248;8.252;2023-12-29T05:07:57;8.60;99.90
37408;DHT22;24866;50.248;8.252;2023-12-29T05:10:29;8.50;99.90
37408;DHT22;24866;50.248;8.252;2023-12-29T05:12:59;8.50;99.90
37408;DHT22;24866;50.248;8.252;2023-12-29T05:15:28;8.50;99.90
37408;DHT22;24866;50.248;8.252;2023-12-29T05:20:29;8.50;99.90
37408;DHT22;24866;50.248;8.252;2023-12-29T05:22:58;8.60;99.90
37408;DHT22;24866;50.248;8.252;2023-12-29T05:25:30;8.60;99.90
37408;DHT22;24866;50.248;8.252;2023-12-29T05:28:00;8.60;99.90
37408;DHT22;24866;50.248;8.252;2023-12-29T05:30:30;8.60;99.90
37408;DHT22;24866;50.248;8.252;2023-12-29T05:33:00;8.60;99.90
37408;DHT22;24866;50.248;8.252;2023-12-29T05:35:30;8.70;99.90
37408;DHT22;24866;50.248;8.252;2023-12-29T05:38:00;8.80;99.90
37408;DHT22;24866;50.248;8.252;2023-12-29T05:40:31;8.70;99.90
37408;DHT22;24866;50.248;8.252;2023-12-29T05:45:32;8.80;99.90
37408;DHT22;24866;50.248;8.252;2023-12-29T05:48:02;8.80;99.90
37408;DHT22;24866;50.248;8.252;2023-12-29T05:50:32;8.80;99.90
37408;DHT22;24866;50.248;8.252;2023-12-29T05:53:02;8.80;99.90
37408;DHT22;24866;50.248;8.252;2023-12-29T05:55:34;8.80;99.90
37408;DHT22;24866;50.248;8.252;2023-12-29T05:58:04;8.80;99.90
37408;DHT22;24866;50.248;8.252;2023-12-29T06:00:35;8.80;99.90
37408;DHT22;24866;50.248;8.252;2023-12-29T06:03:05;8.80;99.90
37408;DHT22;24866;50.248;8.252;2023-12-29T06:05:35;8.80;99.90
37408;DHT22;24866;50.248;8.252;2023-12-29T06:08:06;8.90;99.90
37408;DHT22;24866;50.248;8.252;2023-12-29T06:10:37;8.90;99.90
37408;DHT22;24866;50.248;8.252;2023-12-29T06:13:07;8.90;99.90
37408;DHT22;24866;50.248;8.252;2023-12-29T06:15:37;8.90;99.90
37408;DHT22;24866;50.248;8.252;2023-12-29T06:18:07;8.90;99.90
37408;DHT22;24866;50.248;8.252;2023-12-29T06:20:37;9.00;99.90
37408;DHT22;24866;50.248;8.252;2023-12-29T06:23:07;9.00;99.90
37408;DHT22;24866;50.248;8.252;2023-12-29T06:25:38;9.00;99.90
37408;DHT22;24866;50.248;8.252;2023-12-29T06:28:09;9.00;99.90
37408;DHT22;24866;50.248;8.252;2023-12-29T06:30:39;9.00;99.90
37408;DHT22;24866;50.248;8.252;2023-12-29T06:33:09;8.90;99.90
37408;DHT22;24866;50.248;8.252;2023-12-29T06:35:39;8.80;99.90
37408;DHT22;24866;50.248;8.252;2023-12-29T06:38:09;8.60;99.90
37408;DHT22;24866;50.248;8.252;2023-12-29T06:40:40;8.60;99.90
37408;DHT22;24866;50.248;8.252;2023-12-29T06:43:10;8.80;99.90
37408;DHT22;24866;50.248;8.252;2023-12-29T06:45:40;8.70;99.90
37408;DHT22;24866;50.248;8.252;2023-12-29T06:48:10;8.70;99.90
37408;DHT22;24866;50.248;8.252;2023-12-29T06:50:40;8.70;99.90
37408;DHT22;24866;50.248;8.252;2023-12-29T06:53:10;8.70;99.90
37408;DHT22;24866;50.248;8.252;2023-12-29T06:55:42;8.70;99.90
37408;DHT22;24866;50.248;8.252;2023-12-29T06:58:12;8.70;99.90
37408;DHT22;24866;50.248;8.252;2023-12-29T07:00:42;8.70;99.90
37408;DHT22;24866;50.248;8.252;2023-12-29T07:03:13;8.80;99.90
37408;DHT22;24866;50.248;8.252;2023-12-29T07:05:43;8.80;99.90
37408;DHT22;24866;50.248;8.252;2023-12-29T07:08:13;8.90;99.90
37408;DHT22;24866;50.248;8.252;2023-12-29T07:10:45;9.00;99.90
37408;DHT22;24866;50.248;8.252;2023-12-29T07:13:18;9.10;99.90
37408;DHT22;24866;50.248;8.252;2023-12-29T07:15:48;9.00;99.90
37408;DHT22;24866;50.248;8.252;2023-12-29T07:18:18;9.10;99.90
37408;DHT22;24866;50.248;8.252;2023-12-29T07:20:48;9.10;99.90
37408;DHT22;24866;50.248;8.252;2023-12-29T07:23:18;9.10;99.90
37408;DHT22;24866;50.248;8.252;2023-12-29T07:25:49;9.10;99.90
37408;DHT22;24866;50.248;8.252;2023-12-29T07:28:19;9.10;99.90
37408;DHT22;24866;50.248;8.252;2023-12-29T07:30:49;9.10;99.90
37408;DHT22;24866;50.248;8.252;2023-12-29T07:33:19;9.00;99.90
37408;DHT22;24866;50.248;8.252;2023-12-29T07:35:49;9.10;99.90
37408;DHT22;24866;50.248;8.252;2023-12-29T07:38:19;9.10;99.90
37408;DHT22;24866;50.248;8.252;2023-12-29T07:40:51;9.10;99.90
37408;DHT22;24866;50.248;8.252;2023-12-29T07:43:23;9.20;99.90
37408;DHT22;24866;50.248;8.252;2023-12-29T07:45:53;9.20;99.90
37408;DHT22;24866;50.248;8.252;2023-12-29T07:48:23;9.30;99.90
37408;DHT22;24866;50.248;8.252;2023-12-29T07:51:04;9.30;99.90
37408;DHT22;24866;50.248;8.252;2023-12-29T07:53:34;9.20;99.90
37408;DHT22;24866;50.248;8.252;2023-12-29T07:56:06;9.20;99.90
37408;DHT22;24866;50.248;8.252;2023-12-29T07:58:36;9.20;99.90
37408;DHT22;24866;50.248;8.252;2023-12-29T08:01:06;9.20;99.90
37408;DHT22;24866;50.248;8.252;2023-12-29T08:03:35;9.30;99.90
37408;DHT22;24866;50.248;8.252;2023-12-29T08:06:06;9.30;99.90
37408;DHT22;24866;50.248;8.252;2023-12-29T08:08:36;9.20;99.90
37408;DHT22;24866;50.248;8.252;2023-12-29T08:11:12;9.20;99.90
37408;DHT22;24866;50.248;8.252;2023-12-29T08:13:44;9.10;99.90
37408;DHT22;24866;50.248;8.252;2023-12-29T08:16:14;9.10;99.90
37408;DHT22;24866;50.248;8.252;2023-12-29T08:18:46;9.10;99.90
37408;DHT22;24866;50.248;8.252;2023-12-29T08:21:17;9.10;99.90
37408;DHT22;24866;50.248;8.252;2023-12-29T08:23:48;9.20;99.90
37408;DHT22;24866;50.248;8.252;2023-12-29T08:26:19;9.20;99.90
37408;DHT22;24866;50.248;8.252;2023-12-29T08:28:49;9.20;99.90
37408;DHT22;24866;50.248;8.252;2023-12-29T08:31:19;9.20;99.90
37408;DHT22;24866;50.248;8.252;2023-12-29T08:33:49;9.20;99.90
37408;DHT22;24866;50.248;8.252;2023-12-29T08:36:20;9.20;99.90
37408;DHT22;24866;50.248;8.252;2023-12-29T08:38:50;9.30;99.90
37408;DHT22;24866;50.248;8.252;2023-12-29T08:41:22;9.30;99.90
37408;DHT22;24866;50.248;8.252;2023-12-29T08:43:52;9.40;99.90
37408;DHT22;24866;50.248;8.252;2023-12-29T08:46:22;9.50;99.90
37408;DHT22;24866;50.248;8.252;2023-12-29T08:48:53;9.50;99.90
37408;DHT22;24866;50.248;8.252;2023-12-29T08:51:23;9.50;99.90
37408;DHT22;24866;50.248;8.252;2023-12-29T08:53:52;9.50;99.90
37408;DHT22;24866;50.248;8.252;2023-12-29T08:56:24;9.50;99.90
37408;DHT22;24866;50.248;8.252;2023-12-29T08:58:54;9.50;99.90
37408;DHT22;24866;50.248;8.252;2023-12-29T09:01:24;9.60;99.90
37408;DHT22;24866;50.248;8.252;2023-12-29T09:03:53;9.60;99.90
37408;DHT22;24866;50.248;8.252;2023-12-29T09:06:23;9.50;99.90
37408;DHT22;24866;50.248;8.252;2023-12-29T09:08:53;9.50;99.90
37408;DHT22;24866;50.248;8.252;2023-12-29T09:11:24;9.50;99.90
37408;DHT22;24866;50.248;8.252;2023-12-29T09:13:55;9.50;99.90
37408;DHT22;24866;50.248;8.252;2023-12-29T09:16:25;9.50;99.90
37408;DHT22;24866;50.248;8.252;2023-12-29T09:18:54;9.50;99.90
37408;DHT22;24866;50.248;8.252;2023-12-29T09:21:24;9.50;99.90
37408;DHT22;24866;50.248;8.252;2023-12-29T09:23:54;9.50;99.90
37408;DHT22;24866;50.248;8.252;2023-12-29T09:26:26;9.60;99.90
37408;DHT22;24866;50.248;8.252;2023-12-29T09:28:55;9.60;99.90
37408;DHT22;24866;50.248;8.252;2023-12-29T09:31:25;9.60;99.90
37408;DHT22;24866;50.248;8.252;2023-12-29T09:33:56;9.60;99.90
37408;DHT22;24866;50.248;8.252;2023-12-29T09:36:26;9.60;99.90
37408;DHT22;24866;50.248;8.252;2023-12-29T09:38:56;9.60;99.90
37408;DHT22;24866;50.248;8.252;2023-12-29T09:41:30;9.60;99.90
37408;DHT22;24866;50.248;8.252;2023-12-29T09:44:01;9.60;99.90
37408;DHT22;24866;50.248;8.252;2023-12-29T09:46:33;9.60;99.90
37408;DHT22;24866;50.248;8.252;2023-12-29T09:49:03;9.50;99.90
37408;DHT22;24866;50.248;8.252;2023-12-29T09:51:34;9.50;99.90
37408;DHT22;24866;50.248;8.252;2023-12-29T09:54:04;9.60;99.90
37408;DHT22;24866;50.248;8.252;2023-12-29T09:56:36;9.50;99.90
37408;DHT22;24866;50.248;8.252;2023-12-29T09:59:06;9.50;99.90
37408;DHT22;24866;50.248;8.252;2023-12-29T10:01:39;9.50;99.90
37408;DHT22;24866;50.248;8.252;2023-12-29T10:04:11;9.50;99.90
37408;DHT22;24866;50.248;8.252;2023-12-29T10:06:44;9.50;99.90
37408;DHT22;24866;50.248;8.252;2023-12-29T10:09:17;9.50;99.90
37408;DHT22;24866;50.248;8.252;2023-12-29T10:11:50;9.50;99.90
37408;DHT22;24866;50.248;8.252;2023-12-29T10:14:27;9.60;99.90
37408;DHT22;24866;50.248;8.252;2023-12-29T10:17:03;9.60;99.90
37408;DHT22;24866;50.248;8.252;2023-12-29T10:19:39;9.60;99.90
37408;DHT22;24866;50.248;8.252;2023-12-29T10:22:15;9.60;99.90
37408;DHT22;24866;50.248;8.252;2023-12-29T10:24:48;9.60;99.90
37408;DHT22;24866;50.248;8.252;2023-12-29T10:27:21;9.60;99.90
37408;DHT22;24866;50.248;8.252;2023-12-29T10:29:52;9.60;99.90
37408;DHT22;24866;50.248;8.252;2023-12-29T10:32:22;9.60;99.90
37408;DHT22;24866;50.248;8.252;2023-12-29T10:35:07;9.70;99.90
37408;DHT22;24866;50.248;8.252;2023-12-29T10:37:37;9.70;99.90
37408;DHT22;24866;50.248;8.252;2023-12-29T10:40:08;9.80;99.90
37408;DHT22;24866;50.248;8.252;2023-12-29T10:42:51;9.80;99.90
37408;DHT22;24866;50.248;8.252;2023-12-29T10:45:21;9.80;99.90
37408;DHT22;24866;50.248;8.252;2023-12-29T10:47:53;9.80;99.90
37408;DHT22;24866;50.248;8.252;2023-12-29T10:50:23;9.80;99.90
37408;DHT22;24866;50.248;8.252;2023-12-29T10:53:10;9.80;99.90
37408;DHT22;24866;50.248;8.252;2023-12-29T10:55:40;9.80;99.90
37408;DHT22;24866;50.248;8.252;2023-12-29T10:58:12;9.80;99.90
37408;DHT22;24866;50.248;8.252;2023-12-29T11:00:45;9.80;99.90
37408;DHT22;24866;50.248;8.252;2023-12-29T11:03:15;9.90;99.90
37408;DHT22;24866;50.248;8.252;2023-12-29T11:05:45;9.80;99.90
37408;DHT22;24866;50.248;8.252;2023-12-29T11:08:16;9.90;99.90
37408;DHT22;24866;50.248;8.252;2023-12-29T11:10:48;10.00;99.90
37408;DHT22;24866;50.248;8.252;2023-12-29T11:13:20;10.00;99.90
37408;DHT22;24866;50.248;8.252;2023-12-29T11:15:51;10.10;99.90
37408;DHT22;24866;50.248;8.252;2023-12-29T11:18:22;10.10;99.90
37408;DHT22;24866;50.248;8.252;2023-12-29T11:20:53;10.20;99.90
37408;DHT22;24866;50.248;8.252;2023-12-29T11:23:22;10.10;99.90
37408;DHT22;24866;50.248;8.252;2023-12-29T11:25:52;10.20;99.90
37408;DHT22;24866;50.248;8.252;2023-12-29T11:28:25;10.20;99.90
37408;DHT22;24866;50.248;8.252;2023-12-29T11:30:55;10.20;99.90
37408;DHT22;24866;50.248;8.252;2023-12-29T11:33:29;10.20;99.90
37408;DHT22;24866;50.248;8.252;2023-12-29T11:36:07;10.30;99.90
37408;DHT22;24866;50.248;8.252;2023-12-29T11:38:47;10.30;99.90
37408;DHT22;24866;50.248;8.252;2023-12-29T11:41:25;10.30;99.90
37408;DHT22;24866;50.248;8.252;2023-12-29T11:44:00;10.30;99.90
37408;DHT22;24866;50.248;8.252;2023-12-29T11:46:33;10.30;99.90
37408;DHT22;24866;50.248;8.252;2023-12-29T11:49:03;10.30;99.90
37408;DHT22;24866;50.248;8.252;2023-12-29T11:51:35;10.30;99.90
37408;DHT22;24866;50.248;8.252;2023-12-29T11:54:05;10.30;99.90
37408;DHT22;24866;50.248;8.252;2023-12-29T11:56:37;10.30;99.90
37408;DHT22;24866;50.248;8.252;2023-12-29T11:59:20;10.40;99.90
37408;DHT22;24866;50.248;8.252;2023-12-29T12:01:51;10.40;99.90
37408;DHT22;24866;50.248;8.252;2023-12-29T12:04:37;10.30;99.90
37408;DHT22;24866;50.248;8.252;2023-12-29T12:07:15;10.30;99.90
37408;DHT22;24866;50.248;8.252;2023-12-29T12:09:45;10.30;99.90
37408;DHT22;24866;50.248;8.252;2023-12-29T12:12:39;10.30;99.90
37408;DHT22;24866;50.248;8.252;2023-12-29T12:15:34;10.30;99.90
37408;DHT22;24866;50.248;8.252;2023-12-29T12:18:05;10.30;99.90
37408;DHT22;24866;50.248;8.252;2023-12-29T12:20:38;10.30;99.90
37408;DHT22;24866;50.248;8.252;2023-12-29T12:23:11;10.30;99.90
37408;DHT22;24866;50.248;8.252;2023-12-29T12:25:46;10.40;99.90
37408;DHT22;24866;50.248;8.252;2023-12-29T12:28:16;10.30;99.90
37408;DHT22;24866;50.248;8.252;2023-12-29T12:30:48;10.30;99.90
37408;DHT22;24866;50.248;8.252;2023-12-29T12:33:17;10.30;99.90
37408;DHT22;24866;50.248;8.252;2023-12-29T12:35:59;10.30;99.90
37408;DHT22;24866;50.248;8.252;2023-12-29T12:38:28;10.30;99.90
37408;DHT22;24866;50.248;8.252;2023-12-29T12:41:10;10.30;99.90
37408;DHT22;24866;50.248;8.252;2023-12-29T12:46:15;10.30;99.90
37408;DHT22;24866;50.248;8.252;2023-12-29T12:48:46;10.30;99.90
37408;DHT22;24866;50.248;8.252;2023-12-29T12:51:19;10.30;99.90
37408;DHT22;24866;50.248;8.252;2023-12-29T12:53:50;10.30;99.90
37408;DHT22;24866;50.248;8.252;2023-12-29T12:56:21;10.30;99.90
37408;DHT22;24866;50.248;8.252;2023-12-29T12:58:51;10.30;99.90
37408;DHT22;24866;50.248;8.252;2023-12-29T13:01:22;10.30;99.90
37408;DHT22;24866;50.248;8.252;2023-12-29T13:03:52;10.30;99.90
37408;DHT22;24866;50.248;8.252;2023-12-29T13:06:22;10.30;99.90
37408;DHT22;24866;50.248;8.252;2023-12-29T13:08:52;10.30;99.90
37408;DHT22;24866;50.248;8.252;2023-12-29T13:11:22;10.30;99.90
37408;DHT22;24866;50.248;8.252;2023-12-29T13:13:54;10.30;99.90
37408;DHT22;24866;50.248;8.252;2023-12-29T13:16:30;10.30;99.90
37408;DHT22;24866;50.248;8.252;2023-12-29T13:19:15;10.30;99.90
37408;DHT22;24866;50.248;8.252;2023-12-29T13:21:48;10.30;99.90
37408;DHT22;24866;50.248;8.252;2023-12-29T13:24:18;10.40;99.90
37408;DHT22;24866;50.248;8.252;2023-12-29T13:26:51;10.30;99.90
37408;DHT22;24866;50.248;8.252;2023-12-29T13:29:23;10.30;99.90
37408;DHT22;24866;50.248;8.252;2023-12-29T13:31:59;10.30;99.90
37408;DHT22;24866;50.248;8.252;2023-12-29T13:34:33;10.30;99.90
37408;DHT22;24866;50.248;8.252;2023-12-29T13:37:14;10.20;99.90
37408;DHT22;24866;50.248;8.252;2023-12-29T13:39:53;10.20;99.90
37408;DHT22;24866;50.248;8.252;2023-12-29T13:42:25;10.20;99.90
37408;DHT22;24866;50.248;8.252;2023-12-29T13:44:58;10.20;99.90
37408;DHT22;24866;50.248;8.252;2023-12-29T13:47:31;10.10;99.90
37408;DHT22;24866;50.248;8.252;2023-12-29T13:50:01;10.20;99.90
37408;DHT22;24866;50.248;8.252;2023-12-29T13:52:32;10.20;99.90
37408;DHT22;24866;50.248;8.252;2023-12-29T13:55:05;10.10;99.90
37408;DHT22;24866;50.248;8.252;2023-12-29T13:57:36;10.10;99.90
37408;DHT22;24866;50.248;8.252;2023-12-29T14:00:16;10.20;99.90
37408;DHT22;24866;50.248;8.252;2023-12-29T14:02:57;10.20;99.90
37408;DHT22;24866;50.248;8.252;2023-12-29T14:05:35;10.20;99.90
37408;DHT22;24866;50.248;8.252;2023-12-29T14:08:09;10.20;99.90
37408;DHT22;24866;50.248;8.252;2023-12-29T14:10:40;10.20;99.90
37408;DHT22;24866;50.248;8.252;2023-12-29T14:13:12;10.10;99.90
37408;DHT22;24866;50.248;8.252;2023-12-29T14:15:43;10.10;99.90
37408;DHT22;24866;50.248;8.252;2023-12-29T14:18:33;10.10;99.90
37408;DHT22;24866;50.248;8.252;2023-12-29T14:21:20;10.10;99.90
37408;DHT22;24866;50.248;8.252;2023-12-29T14:24:08;10.10;99.90
37408;DHT22;24866;50.248;8.252;2023-12-29T14:26:39;10.20;99.90
37408;DHT22;24866;50.248;8.252;2023-12-29T14:29:11;10.20;99.90
37408;DHT22;24866;50.248;8.252;2023-12-29T14:31:42;10.20;99.90
37408;DHT22;24866;50.248;8.252;2023-12-29T14:34:13;10.20;99.90
37408;DHT22;24866;50.248;8.252;2023-12-29T14:36:44;10.20;99.90
37408;DHT22;24866;50.248;8.252;2023-12-29T14:39:14;10.20;99.90
37408;DHT22;24866;50.248;8.252;2023-12-29T14:41:44;10.20;99.90
37408;DHT22;24866;50.248;8.252;2023-12-29T14:44:15;10.20;99.90
37408;DHT22;24866;50.248;8.252;2023-12-29T14:46:45;10.30;99.90
37408;DHT22;24866;50.248;8.252;2023-12-29T14:49:16;10.30;99.90
37408;DHT22;24866;50.248;8.252;2023-12-29T14:51:46;10.20;99.90
37408;DHT22;24866;50.248;8.252;2023-12-29T14:54:16;10.20;99.90
37408;DHT22;24866;50.248;8.252;2023-12-29T14:56:46;10.20;99.90
37408;DHT22;24866;50.248;8.252;2023-12-29T14:59:15;10.10;99.90
37408;DHT22;24866;50.248;8.252;2023-12-29T15:01:45;10.10;99.90
37408;DHT22;24866;50.248;8.252;2023-12-29T15:04:17;10.10;99.90
37408;DHT22;24866;50.248;8.252;2023-12-29T15:06:46;10.10;99.90
37408;DHT22;24866;50.248;8.252;2023-12-29T15:09:17;10.10;99.90
37408;DHT22;24866;50.248;8.252;2023-12-29T15:11:48;10.10;99.90
37408;DHT22;24866;50.248;8.252;2023-12-29T15:14:21;10.00;99.90
37408;DHT22;24866;50.248;8.252;2023-12-29T15:16:51;10.00;99.90
37408;DHT22;24866;50.248;8.252;2023-12-29T15:19:22;10.00;99.90
37408;DHT22;24866;50.248;8.252;2023-12-29T15:21:52;9.90;99.90
37408;DHT22;24866;50.248;8.252;2023-12-29T15:24:22;9.90;99.90
37408;DHT22;24866;50.248;8.252;2023-12-29T15:26:52;9.80;99.90
37408;DHT22;24866;50.248;8.252;2023-12-29T15:29:22;9.80;99.90
37408;DHT22;24866;50.248;8.252;2023-12-29T15:31:52;9.80;99.90
37408;DHT22;24866;50.248;8.252;2023-12-29T15:34:24;9.70;99.90
37408;DHT22;24866;50.248;8.252;2023-12-29T15:36:53;9.70;99.90
37408;DHT22;24866;50.248;8.252;2023-12-29T15:39:24;9.70;99.90
37408;DHT22;24866;50.248;8.252;2023-12-29T15:41:53;9.70;99.90
37408;DHT22;24866;50.248;8.252;2023-12-29T15:44:23;9.60;99.90
37408;DHT22;24866;50.248;8.252;2023-12-29T15:46:53;9.60;99.90
37408;DHT22;24866;50.248;8.252;2023-12-29T15:49:27;9.60;99.90
37408;DHT22;24866;50.248;8.252;2023-12-29T15:51:57;9.60;99.90
37408;DHT22;24866;50.248;8.252;2023-12-29T15:54:27;9.60;99.90
37408;DHT22;24866;50.248;8.252;2023-12-29T15:56:57;9.50;99.90
37408;DHT22;24866;50.248;8.252;2023-12-29T15:59:27;9.50;99.90
37408;DHT22;24866;50.248;8.252;2023-12-29T16:01:57;9.50;99.90
37408;DHT22;24866;50.248;8.252;2023-12-29T16:04:28;9.50;99.90
37408;DHT22;24866;50.248;8.252;2023-12-29T16:06:58;9.50;99.90
37408;DHT22;24866;50.248;8.252;2023-12-29T16:09:28;9.50;99.90
37408;DHT22;24866;50.248;8.252;2023-12-29T16:12:01;9.50;99.90
37408;DHT22;24866;50.248;8.252;2023-12-29T16:14:32;9.50;99.90
37408;DHT22;24866;50.248;8.252;2023-12-29T16:17:03;9.50;99.90
37408;DHT22;24866;50.248;8.252;2023-12-29T16:19:34;9.50;99.90
37408;DHT22;24866;50.248;8.252;2023-12-29T16:22:04;9.60;99.90
37408;DHT22;24866;50.248;8.252;2023-12-29T16:24:37;9.60;99.90
37408;DHT22;24866;50.248;8.252;2023-12-29T16:27:07;9.60;99.90
37408;DHT22;24866;50.248;8.252;2023-12-29T16:29:37;9.60;99.90
37408;DHT22;24866;50.248;8.252;2023-12-29T16:32:06;9.60;99.90
37408;DHT22;24866;50.248;8.252;2023-12-29T16:34:54;9.60;99.90
37408;DHT22;24866;50.248;8.252;2023-12-29T16:37:25;9.60;99.90
37408;DHT22;24866;50.248;8.252;2023-12-29T16:39:55;9.70;99.90
37408;DHT22;24866;50.248;8.252;2023-12-29T16:42:25;9.60;99.90
37408;DHT22;24866;50.248;8.252;2023-12-29T16:44:55;9.60;99.90
37408;DHT22;24866;50.248;8.252;2023-12-29T16:47:25;9.60;99.90
37408;DHT22;24866;50.248;8.252;2023-12-29T16:49:56;9.60;99.90
37408;DHT22;24866;50.248;8.252;2023-12-29T16:52:26;9.60;99.90
37408;DHT22;24866;50.248;8.252;2023-12-29T16:54:56;9.60;99.90